Time;durP1;ratioP1;P1;durP2;ratioP2;P2;SDS_P1;SDS_P2;PMS_P1;PMS_P2;Temp;Humidity;BMP_temperature;BMP_pressure;BME280_temperature;BME280_humidity;BME280_pressure;Samples;Min_cycle;Max_cycle;Signal;HPM_P1;HPM_P2
2022/08/04 00:00:38;;;;;;;13.50;4.32;;;;;;;22.46;100.00;100907.88;5062954;28;20032;-78
2022/08/04 00:03:15;;;;;;;14.07;4.15;;;;;;;22.52;100.00;100911.81;5081182;28;20024;-79
2022/08/04 00:06:00;;;;;;;7.45;3.42;;;;;;;22.56;100.00;100919.59;5063892;28;20047;-79
2022/08/04 00:08:35;;;;;;;14.15;3.88;;;;;;;22.58;100.00;100922.19;5090459;28;20078;-79
2022/08/04 00:11:08;;;;;;;11.38;3.88;;;;;;;22.46;100.00;100912.59;5090259;28;20038;-80
2022/08/04 00:13:41;;;;;;;17.33;3.67;;;;;;;22.47;100.00;100911.56;5060691;28;20401;-79
2022/08/04 00:16:09;;;;;;;15.52;3.90;;;;;;;22.48;100.00;100908.56;5098533;28;20554;-78
2022/08/04 00:18:46;;;;;;;11.43;3.60;;;;;;;22.51;100.00;100913.75;5067025;28;20032;-80
2022/08/04 00:21:15;;;;;;;10.63;3.67;;;;;;;22.47;100.00;100900.38;5101230;28;20391;-80
2022/08/04 00:23:46;;;;;;;12.23;3.55;;;;;;;22.44;100.00;100909.16;5078829;28;20372;-79
2022/08/04 00:26:15;;;;;;;15.32;3.83;;;;;;;22.70;100.00;100894.59;5061086;28;20483;-78
2022/08/04 00:28:41;;;;;;;9.65;3.15;;;;;;;22.64;100.00;100892.59;5084269;28;20028;-80
2022/08/04 00:31:10;;;;;;;15.00;3.45;;;;;;;22.66;100.00;100890.47;5063915;28;20380;-80
2022/08/04 00:33:42;;;;;;;8.18;2.38;;;;;;;22.79;100.00;100895.31;5079713;28;20032;-80
2022/08/04 00:36:10;;;;;;;12.80;2.55;;;;;;;22.73;100.00;100889.47;5092171;28;20041;-80
2022/08/04 00:38:39;;;;;;;12.80;3.05;;;;;;;22.85;100.00;100889.78;5064831;28;20040;-80
2022/08/04 00:41:55;;;;;;;10.75;2.97;;;;;;;22.94;100.00;100883.00;5049949;28;20040;-81
2022/08/04 00:44:33;;;;;;;9.32;2.60;;;;;;;23.07;100.00;100890.66;4974549;28;20134;-79
2022/08/04 00:47:17;;;;;;;13.25;2.40;;;;;;;23.08;100.00;100888.72;5091867;28;20063;-81
2022/08/04 00:49:53;;;;;;;10.57;1.95;;;;;;;23.19;100.00;100876.13;5080078;28;20467;-81
2022/08/04 00:52:28;;;;;;;7.18;2.03;;;;;;;23.15;100.00;100884.03;5056335;28;20035;-81
2022/08/04 00:55:24;;;;;;;7.68;2.08;;;;;;;23.18;100.00;100875.25;5080776;28;20538;-80
2022/08/04 00:58:12;;;;;;;12.55;1.95;;;;;;;23.24;100.00;100880.00;5074906;28;20075;-80
2022/08/04 01:01:04;;;;;;;10.05;2.08;;;;;;;23.28;100.00;100872.09;5061496;28;20048;-80
2022/08/04 01:03:33;;;;;;;9.63;2.20;;;;;;;23.42;100.00;100878.63;5073040;28;20093;-80
2022/08/04 01:06:16;;;;;;;13.15;1.88;;;;;;;23.33;100.00;100866.72;5075825;28;20475;-80
2022/08/04 01:08:46;;;;;;;17.67;2.30;;;;;;;23.37;100.00;100870.00;5080815;28;20020;-79
2022/08/04 01:11:29;;;;;;;12.60;1.77;;;;;;;23.31;100.00;100869.72;5063368;28;20039;-79
2022/08/04 01:13:59;;;;;;;11.00;1.90;;;;;;;23.39;100.00;100865.06;5073088;28;20036;-78
2022/08/04 01:16:30;;;;;;;5.90;1.90;;;;;;;23.39;100.00;100865.06;5079572;28;20024;-80
2022/08/04 01:19:00;;;;;;;7.03;1.88;;;;;;;23.52;100.00;100867.06;5065078;28;20451;-81
2022/08/04 01:21:28;;;;;;;14.77;2.40;;;;;;;23.52;100.00;100865.13;5094541;28;20088;-78
2022/08/04 01:24:47;;;;;;;9.63;1.67;;;;;;;23.50;100.00;100858.91;5098969;28;20076;-78
2022/08/04 01:27:26;;;;;;;6.75;2.00;;;;;;;23.50;100.00;100861.69;5093224;28;20020;-79
2022/08/04 01:29:57;;;;;;;3.55;1.52;;;;;;;23.52;100.00;100856.75;5096320;28;20050;-81
2022/08/04 01:32:44;;;;;;;9.40;1.70;;;;;;;23.52;100.00;100853.97;5098868;28;20056;-79
2022/08/04 01:35:23;;;;;;;6.57;1.70;;;;;;;23.46;100.00;100851.97;5072332;28;20067;-79
2022/08/04 01:37:56;;;;;;;12.40;2.28;;;;;;;23.46;100.00;100850.06;5095254;28;20040;-79
2022/08/04 01:40:26;;;;;;;11.93;2.10;;;;;;;23.41;100.00;100849.81;5060101;28;20036;-79
2022/08/04 01:42:59;;;;;;;10.13;2.13;;;;;;;23.39;100.00;100842.72;5060828;28;20058;-77
2022/08/04 01:45:26;;;;;;;8.48;1.98;;;;;;;23.38;100.00;100849.34;5046738;28;20044;-79
2022/08/04 01:47:55;;;;;;;15.70;3.50;;;;;;;23.37;100.00;100848.50;5065574;28;20539;-80
2022/08/04 01:50:22;;;;;;;16.13;2.75;;;;;;;23.35;100.00;100849.75;5083633;28;20356;-78
2022/08/04 01:52:52;;;;;;;11.10;1.98;;;;;;;23.29;100.00;100843.09;5103383;28;20036;-80
2022/08/04 01:55:18;;;;;;;10.27;2.83;;;;;;;23.25;100.00;100838.97;5084058;28;20028;-80
2022/08/04 01:57:50;;;;;;;8.25;3.30;;;;;;;23.21;100.00;100838.50;5086156;28;20063;-78
2022/08/04 02:00:25;;;;;;;19.05;3.05;;;;;;;23.15;100.00;100844.06;5085215;28;20387;-78
2022/08/04 02:02:54;;;;;;;14.05;2.85;;;;;;;23.08;100.00;100838.44;5082623;28;20028;-80
2022/08/04 02:05:23;;;;;;;10.45;3.08;;;;;;;23.03;100.00;100835.38;5083752;28;20027;-80
2022/08/04 02:08:13;;;;;;;12.80;3.03;;;;;;;23.01;100.00;100835.56;5087566;28;20084;-80
2022/08/04 02:11:05;;;;;;;13.10;2.83;;;;;;;22.99;100.00;100829.31;5086081;28;20032;-79
2022/08/04 02:13:52;;;;;;;15.53;3.40;;;;;;;22.93;100.00;100822.59;5064726;28;20048;-79
2022/08/04 02:16:31;;;;;;;18.15;3.50;;;;;;;22.93;100.00;100818.97;5086834;28;20031;-81
2022/08/04 02:19:06;;;;;;;15.40;3.40;;;;;;;22.89;100.00;100823.22;5069581;28;20024;-80
2022/08/04 02:21:33;;;;;;;10.93;3.60;;;;;;;22.90;100.00;100814.63;5105708;28;20464;-79
2022/08/04 02:24:06;;;;;;;21.85;5.22;;;;;;;22.89;100.00;100806.47;5104955;28;20032;-80
2022/08/04 02:26:40;;;;;;;13.43;3.90;;;;;;;22.87;100.00;100808.59;5070730;28;20038;-80
2022/08/04 02:29:39;;;;;;;17.23;4.45;;;;;;;22.87;100.00;100803.88;5086127;28;20051;-80
2022/08/04 02:32:26;;;;;;;15.85;4.35;;;;;;;22.83;100.00;100796.13;5082909;28;20035;-80
2022/08/04 02:35:03;;;;;;;16.80;4.40;;;;;;;22.87;100.00;100805.81;5087890;28;20028;-79
2022/08/04 02:37:33;;;;;;;16.88;4.63;;;;;;;22.94;100.00;100813.19;5071626;28;20031;-80
2022/08/04 02:40:03;;;;;;;17.90;4.40;;;;;;;22.95;100.00;100809.31;5106450;28;20035;-80
2022/08/04 02:42:30;;;;;;;20.05;4.05;;;;;;;22.91;100.00;100802.41;5061919;28;20036;-80
2022/08/04 02:45:02;;;;;;;21.07;4.70;;;;;;;22.92;100.00;100806.94;5053184;28;20025;-79
2022/08/04 02:47:29;;;;;;;15.32;3.38;;;;;;;22.92;100.00;100804.16;5069582;28;20028;-79
2022/08/04 02:49:57;;;;;;;21.52;4.25;;;;;;;23.00;100.00;100797.53;5087327;28;20042;-80
2022/08/04 02:52:23;;;;;;;17.20;4.28;;;;;;;22.99;100.00;100795.81;5079203;28;20502;-80
2022/08/04 02:54:55;;;;;;;13.20;3.63;;;;;;;23.05;100.00;100799.69;5068979;28;20036;-78
2022/08/04 02:57:24;;;;;;;22.57;3.77;;;;;;;23.03;100.00;100794.31;5102116;28;20039;-79
2022/08/04 02:59:59;;;;;;;16.63;3.58;;;;;;;23.09;100.00;100795.47;5047035;28;20036;-80
2022/08/04 03:03:09;;;;;;;16.02;3.75;;;;;;;23.03;100.00;100780.34;5080579;28;20042;-79
2022/08/04 03:05:44;;;;;;;16.35;3.47;;;;;;;23.00;100.00;100786.34;5069019;28;20033;-81
2022/08/04 03:08:28;;;;;;;21.95;4.13;;;;;;;22.94;100.00;100790.00;5079517;28;20032;-80
2022/08/04 03:11:27;;;;;;;13.68;3.17;;;;;;;22.96;100.00;100790.63;5079851;28;20031;-79
2022/08/04 03:14:30;;;;;;;12.23;3.13;;;;;;;22.95;100.00;100792.53;5103622;28;20472;-80
2022/08/04 03:17:21;;;;;;;17.50;3.15;;;;;;;22.95;100.00;100789.75;5066876;28;20032;-79
2022/08/04 03:20:08;;;;;;;10.50;2.92;;;;;;;22.97;100.00;100785.91;5074778;28;20032;-79
2022/08/04 03:22:52;;;;;;;16.63;2.78;;;;;;;22.98;100.00;100787.63;5082046;28;20036;-81
2022/08/04 03:25:34;;;;;;;17.90;3.22;;;;;;;22.92;100.00;100783.72;5068366;28;20035;-81
2022/08/04 03:28:25;;;;;;;14.82;2.67;;;;;;;22.91;100.00;100782.00;5084127;28;20036;-80
2022/08/04 03:31:11;;;;;;;12.05;3.28;;;;;;;22.91;100.00;100771.69;5069833;28;20024;-80
2022/08/04 03:33:54;;;;;;;21.05;3.28;;;;;;;22.89;100.00;100772.97;5082941;28;20109;-81
2022/08/04 03:37:01;;;;;;;9.30;2.50;;;;;;;22.89;100.00;100776.63;5082238;28;20046;-79
2022/08/04 03:40:20;;;;;;;12.30;4.05;;;;;;;22.89;100.00;100778.53;5076935;28;20506;-80
2022/08/04 03:43:16;;;;;;;16.83;3.42;;;;;;;22.79;100.00;100778.06;5043836;28;20051;-80
2022/08/04 03:46:18;;;;;;;13.52;3.38;;;;;;;22.78;100.00;100777.19;5089360;28;20499;-79
2022/08/04 03:49:49;;;;;;;13.93;3.00;;;;;;;22.68;100.00;100773.91;5078753;28;20093;-81
2022/08/04 03:55:38;;;;;;;23.40;3.28;;;;;;;22.58;100.00;100763.09;5081127;28;20050;-80
2022/08/04 03:58:17;;;;;;;15.20;2.83;;;;;;;22.58;100.00;100766.75;5099692;28;20376;-80
2022/08/04 04:00:54;;;;;;;11.07;3.55;;;;;;;22.57;100.00;100773.38;5098459;28;20017;-81
2022/08/04 04:03:41;;;;;;;15.57;3.47;;;;;;;22.52;100.00;100772.28;5060602;28;20064;-81
2022/08/04 04:06:30;;;;;;;13.48;3.47;;;;;;;22.53;100.00;100774.00;5088023;28;20024;-81
2022/08/04 04:09:26;;;;;;;17.00;4.13;;;;;;;22.51;100.00;100776.13;5098978;28;20040;-80
2022/08/04 04:12:16;;;;;;;19.70;3.60;;;;;;;22.39;100.00;100767.44;5078344;28;20031;-78
2022/08/04 04:15:02;;;;;;;13.93;3.40;;;;;;;22.47;100.00;100780.41;5075847;28;20028;-81
2022/08/04 04:18:19;;;;;;;25.05;3.92;;;;;;;22.33;100.00;100773.81;5096618;28;20028;-80
2022/08/04 04:21:03;;;;;;;19.63;4.07;;;;;;;22.29;100.00;100780.88;5053160;28;20272;-80
2022/08/04 04:23:50;;;;;;;21.88;3.63;;;;;;;22.28;100.00;100776.31;5064038;28;20058;-80
2022/08/04 04:26:51;;;;;;;20.90;4.35;;;;;;;22.17;100.00;100770.22;5089745;28;20034;-81
2022/08/04 04:29:32;;;;;;;19.05;4.55;;;;;;;22.17;100.00;100774.97;5053804;28;20112;-78
2022/08/04 04:32:01;;;;;;;19.42;4.00;;;;;;;22.20;100.00;100769.84;5074524;28;20024;-78
2022/08/04 04:34:34;;;;;;;23.43;3.73;;;;;;;22.19;100.00;100765.31;5074919;28;20020;-78
2022/08/04 04:37:28;;;;;;;16.40;4.15;;;;;;;22.21;100.00;100759.53;5076787;28;20028;-77
2022/08/04 04:40:03;;;;;;;18.60;3.70;;;;;;;22.22;100.00;100766.84;5075091;28;20040;-76
2022/08/04 04:42:38;;;;;;;17.60;3.65;;;;;;;22.25;100.00;100765.56;5086462;28;20106;-77
2022/08/04 04:45:27;;;;;;;16.55;2.97;;;;;;;22.26;100.00;100761.72;5076048;28;20020;-78
2022/08/04 04:47:53;;;;;;;13.98;4.05;;;;;;;22.33;100.00;100762.66;5071937;28;20118;-77
2022/08/04 04:50:19;;;;;;;13.13;2.70;;;;;;;22.36;100.00;100765.06;5079724;28;20039;-78
2022/08/04 04:52:51;;;;;;;15.68;2.60;;;;;;;22.34;100.00;100764.41;5074674;28;20028;-78
2022/08/04 04:55:40;;;;;;;15.80;3.15;;;;;;;22.36;100.00;100756.69;5075739;28;20028;-77
2022/08/04 04:58:12;;;;;;;16.55;3.10;;;;;;;22.40;100.00;100763.59;5061399;28;20470;-78
2022/08/04 05:01:11;;;;;;;9.07;2.20;;;;;;;22.43;100.00;100771.56;5093309;28;20626;-80
2022/08/04 05:03:36;;;;;;;15.55;2.80;;;;;;;22.55;100.00;100764.34;5078499;28;20054;-80
2022/08/04 05:06:31;;;;;;;16.38;2.55;;;;;;;22.55;100.00;100775.53;5080668;28;20115;-81
2022/08/04 05:09:25;;;;;;;10.25;2.55;;;;;;;22.60;100.00;100790.81;5062555;28;20039;-81
2022/08/04 05:11:56;;;;;;;19.13;2.77;;;;;;;22.56;100.00;100802.38;5095145;28;20345;-80
2022/08/04 05:14:28;;;;;;;15.27;3.13;;;;;;;22.51;100.00;100806.81;5081707;28;20282;-82
2022/08/04 05:17:05;;;;;;;14.75;3.00;;;;;;;22.61;100.00;100800.91;5081581;28;20417;-80
2022/08/04 05:19:59;;;;;;;11.68;2.58;;;;;;;22.70;100.00;100803.34;5077210;28;20024;-80
2022/08/04 05:22:57;;;;;;;11.10;2.97;;;;;;;22.83;100.00;100808.16;5092553;28;20548;-81
2022/08/04 05:25:31;;;;;;;15.13;2.75;;;;;;;22.84;100.00;100812.69;5043587;28;20055;-80
2022/08/04 05:28:05;;;;;;;14.38;3.03;;;;;;;22.87;100.00;100816.97;5096529;28;20024;-80
2022/08/04 05:30:47;;;;;;;12.23;2.72;;;;;;;23.13;100.00;100816.31;5081980;28;20104;-81
2022/08/04 05:33:17;;;;;;;15.20;3.45;;;;;;;23.11;100.00;100816.53;5065299;28;20111;-81
2022/08/04 05:35:48;;;;;;;12.38;2.35;;;;;;;23.41;100.00;100823.78;5082062;28;20043;-80
2022/08/04 05:38:18;;;;;;;14.20;2.70;;;;;;;23.47;100.00;100835.00;5077424;28;20051;-79
2022/08/04 05:40:44;;;;;;;11.95;2.58;;;;;;;23.58;100.00;100825.19;5062269;28;20074;-81
2022/08/04 05:43:12;;;;;;;24.20;3.05;;;;;;;23.55;100.00;100825.59;5098396;28;20050;-80
2022/08/04 05:45:40;;;;;;;18.58;3.22;;;;;;;23.62;100.00;100823.69;5074349;28;20024;-80
2022/08/04 05:48:08;;;;;;;12.90;2.38;;;;;;;23.67;100.00;100818.31;5074406;28;20032;-81
2022/08/04 05:50:35;;;;;;;13.57;3.28;;;;;;;23.66;100.00;100824.13;5057920;28;20028;-82
2022/08/04 05:53:04;;;;;;;15.02;3.13;;;;;;;23.88;100.00;100826.84;5079407;28;20036;-80
2022/08/04 05:55:31;;;;;;;16.98;3.10;;;;;;;23.87;100.00;100831.53;5079202;28;20040;-81
2022/08/04 05:57:58;;;;;;;14.63;2.60;;;;;;;24.04;100.00;100830.09;5059129;28;20414;-82
2022/08/04 06:00:25;;;;;;;13.98;3.60;;;;;;;24.12;100.00;100830.97;5055110;28;20071;-80
2022/08/04 06:02:52;;;;;;;13.88;3.33;;;;;;;24.51;100.00;100826.50;5051792;28;20037;-81
2022/08/04 06:05:21;;;;;;;13.43;3.08;;;;;;;24.71;100.00;100826.53;5078180;28;20039;-81
2022/08/04 06:07:47;;;;;;;14.02;2.72;;;;;;;24.38;100.00;100821.75;5055592;28;20040;-77
2022/08/04 06:10:13;;;;;;;17.27;3.22;;;;;;;24.74;100.00;100820.50;5054863;28;20093;-78
2022/08/04 06:12:55;;;;;;;16.55;3.53;;;;;;;24.44;100.00;100812.50;5057662;28;20020;-77
2022/08/04 06:15:24;;;;;;;17.85;2.97;;;;;;;24.82;100.00;100809.06;5077624;28;20470;-78
2022/08/04 06:18:04;;;;;;;16.98;3.17;;;;;;;24.80;100.00;100822.44;5076670;28;20028;-78
2022/08/04 06:20:32;;;;;;;10.40;2.83;;;;;;;24.76;100.00;100822.03;5097016;28;20032;-79
2022/08/04 06:23:12;;;;;;;9.38;2.75;;;;;;;25.03;100.00;100819.19;5061730;28;20028;-79
2022/08/04 06:25:45;;;;;;;15.02;3.25;;;;;;;25.11;100.00;100812.50;5077165;28;20036;-78
2022/08/04 06:28:16;;;;;;;23.67;3.75;;;;;;;25.17;98.89;100807.94;5077277;28;20024;-79
2022/08/04 06:30:46;;;;;;;20.83;3.20;;;;;;;25.49;95.07;100815.41;5094790;28;20495;-78
2022/08/04 06:33:32;;;;;;;17.80;3.85;;;;;;;25.90;93.28;100818.06;5079345;28;20032;-79
2022/08/04 06:35:59;;;;;;;17.48;3.38;;;;;;;25.75;93.24;100819.19;5082334;28;20127;-79
2022/08/04 06:38:30;;;;;;;19.30;3.20;;;;;;;25.95;93.45;100821.91;5100891;28;20710;-78
2022/08/04 06:41:02;;;;;;;12.63;3.13;;;;;;;26.11;88.40;100820.53;5101414;28;20040;-79
2022/08/04 06:43:30;;;;;;;8.50;2.30;;;;;;;26.96;86.41;100820.13;5099893;28;20039;-79
2022/08/04 06:46:01;;;;;;;14.32;3.30;;;;;;;27.26;83.57;100821.31;5081828;28;20047;-79
2022/08/04 06:48:27;;;;;;;10.23;2.65;;;;;;;26.56;87.76;100817.66;5063076;28;20491;-79
2022/08/04 06:50:54;;;;;;;15.55;3.20;;;;;;;26.22;87.83;100819.81;5072568;28;20107;-81
2022/08/04 06:53:19;;;;;;;13.93;2.53;;;;;;;26.25;94.12;100826.06;5066186;28;20035;-79
2022/08/04 06:55:48;;;;;;;11.77;2.92;;;;;;;26.79;89.93;100827.41;5101666;28;20024;-81
2022/08/04 06:58:16;;;;;;;20.85;4.00;;;;;;;27.39;84.18;100821.19;5103202;28;20032;-84
2022/08/04 07:00:44;;;;;;;20.83;3.72;;;;;;;27.95;78.90;100830.47;5070513;28;20479;-84
2022/08/04 07:03:14;;;;;;;14.23;3.03;;;;;;;27.82;77.69;100825.00;5086405;28;20479;-84
2022/08/04 07:05:41;;;;;;;21.95;3.03;;;;;;;28.06;75.54;100828.81;5070619;28;20039;-84
2022/08/04 07:08:12;;;;;;;14.82;3.00;;;;;;;28.78;71.20;100825.97;5088058;28;20544;-84
2022/08/04 07:10:38;;;;;;;11.90;2.78;;;;;;;28.53;73.42;100833.72;5055666;28;20051;-83
2022/08/04 07:13:08;;;;;;;12.93;2.70;;;;;;;28.09;75.02;100821.84;5069626;28;20028;-82
2022/08/04 07:15:40;;;;;;;;;;;;;;;28.54;73.05;100833.47;5073586;28;20058;-83
2022/08/04 07:18:07;;;;;;;17.08;2.70;;;;;;;28.95;72.53;100828.91;5088740;28;19963;-83
2022/08/04 07:20:33;;;;;;;15.55;3.15;;;;;;;28.81;72.44;100833.09;5089467;28;20488;-84
2022/08/04 07:23:05;;;;;;;;;;;;;;;28.58;73.26;100833.88;5069218;28;20032;-83
2022/08/04 07:25:33;;;;;;;17.85;3.05;;;;;;;29.25;70.55;100832.72;5067047;28;19908;-83
2022/08/04 07:27:58;;;;;;;14.82;3.15;;;;;;;29.67;67.59;100824.09;5063704;28;20067;-83
2022/08/04 07:30:26;;;;;;;17.30;2.78;;;;;;;29.44;67.11;100836.28;5030181;28;20029;-83
2022/08/04 07:32:53;;;;;;;10.52;2.47;;;;;;;29.56;67.64;100824.97;5083585;28;20111;-84
2022/08/04 07:35:27;;;;;;;7.30;2.15;;;;;;;29.83;65.43;100837.44;5083729;28;20047;-84
2022/08/04 07:37:55;;;;;;;12.02;2.38;;;;;;;30.18;63.97;100830.78;5063259;28;20053;-85
2022/08/04 07:40:25;;;;;;;12.23;2.47;;;;;;;28.80;67.36;100836.16;5048405;28;20464;-85
2022/08/04 07:42:51;;;;;;;18.52;2.90;;;;;;;29.69;65.06;100834.00;5063795;28;20063;-83
2022/08/04 07:45:19;;;;;;;13.32;2.85;;;;;;;29.57;67.37;100838.81;5044698;28;20047;-84
2022/08/04 07:47:46;;;;;;;17.08;3.28;;;;;;;29.38;68.52;100838.13;5062400;28;20126;-83
2022/08/04 07:50:13;;;;;;;14.63;2.95;;;;;;;28.90;69.44;100823.16;5060412;28;20040;-83
2022/08/04 07:52:39;;;;;;;18.20;3.42;;;;;;;28.86;70.50;100829.50;5059130;28;20037;-83
2022/08/04 07:55:06;;;;;;;13.38;2.97;;;;;;;28.41;73.96;100834.53;5009536;28;20051;-83
2022/08/04 07:57:31;;;;;;;15.65;2.97;;;;;;;28.54;74.43;100833.47;5045281;28;20086;-83
2022/08/04 07:59:58;;;;;;;12.82;2.45;;;;;;;28.60;73.28;100834.53;5079542;28;20028;-83
2022/08/04 08:02:24;;;;;;;12.77;2.90;;;;;;;28.30;72.83;100840.16;5062037;28;20078;-83
2022/08/04 08:04:52;;;;;;;12.80;2.53;;;;;;;29.78;67.79;100848.63;5080404;28;20029;-83
2022/08/04 08:07:20;;;;;;;11.13;2.47;;;;;;;29.82;65.58;100844.19;5078888;28;20127;-83
2022/08/04 08:09:46;;;;;;;10.15;2.10;;;;;;;29.83;65.81;100842.25;5058990;28;20056;-83
2022/08/04 08:12:14;;;;;;;20.98;2.70;;;;;;;29.66;69.49;100830.81;5058702;28;20055;-84
2022/08/04 08:14:45;;;;;;;26.13;3.20;;;;;;;30.03;68.03;100822.88;5076880;28;20491;-84
2022/08/04 08:17:10;;;;;;;20.30;2.55;;;;;;;30.75;63.81;100840.31;5078841;28;20107;-85
2022/08/04 08:19:37;;;;;;;11.48;2.13;;;;;;;31.15;61.33;100844.94;5078937;28;20036;-84
2022/08/04 08:22:06;;;;;;;14.63;2.80;;;;;;;31.38;60.41;100843.88;5061736;28;20062;-84
2022/08/04 08:24:34;;;;;;;12.07;2.92;;;;;;;31.40;59.96;100836.00;5058385;28;20033;-83
2022/08/04 08:27:05;;;;;;;9.23;1.92;;;;;;;31.74;58.72;100835.03;5059647;28;20472;-84
2022/08/04 08:29:36;;;;;;;9.48;2.83;;;;;;;30.55;61.31;100837.97;5059597;28;20032;-84
2022/08/04 08:32:04;;;;;;;7.63;2.05;;;;;;;31.28;60.06;100843.72;5041476;28;20051;-83
2022/08/04 08:34:31;;;;;;;19.40;2.55;;;;;;;32.06;58.03;100846.50;5030465;28;20195;-82
2022/08/04 08:37:04;;;;;;;9.68;2.40;;;;;;;31.50;58.69;100847.44;5044913;28;20059;-83
2022/08/04 08:39:40;;;;;;;12.45;2.58;;;;;;;31.37;60.11;100847.84;5078122;28;20056;-84
2022/08/04 08:42:36;;;;;;;15.55;2.80;;;;;;;32.36;56.18;100850.81;5062062;28;20036;-84
2022/08/04 08:45:21;;;;;;;20.33;2.72;;;;;;;32.84;54.78;100843.34;5057911;28;20075;-85
2022/08/04 08:48:09;;;;;;;16.05;2.60;;;;;;;32.12;56.98;100841.75;5071635;28;20181;-84
2022/08/04 08:51:05;;;;;;;7.35;2.13;;;;;;;32.61;55.95;100845.41;5079495;28;20043;-84
2022/08/04 08:54:03;;;;;;;9.95;2.92;;;;;;;31.94;56.69;100854.25;5078452;28;20399;-85
2022/08/04 08:56:47;;;;;;;9.98;2.60;;;;;;;33.34;53.05;100863.91;5072727;28;20044;-83
2022/08/04 08:59:34;;;;;;;9.23;2.47;;;;;;;32.37;55.14;100856.22;5053862;28;20067;-84
2022/08/04 09:02:23;;;;;;;18.42;2.75;;;;;;;31.87;56.34;100851.63;5058055;28;20060;-84
2022/08/04 09:05:14;;;;;;;18.40;2.40;;;;;;;31.47;57.09;100855.63;5013087;28;20059;-83
2022/08/04 09:07:59;;;;;;;16.55;2.42;;;;;;;32.41;55.23;100859.38;5064584;28;20024;-83
2022/08/04 09:10:46;;;;;;;16.63;2.70;;;;;;;33.10;52.96;100852.91;5079719;28;20098;-84
2022/08/04 09:13:26;;;;;;;10.23;2.03;;;;;;;33.10;53.73;100857.72;5078553;28;20074;-84
2022/08/04 09:16:09;;;;;;;13.90;2.15;;;;;;;32.89;54.20;100862.38;5078114;28;20108;-83
2022/08/04 09:18:50;;;;;;;15.52;2.63;;;;;;;33.11;53.41;100863.13;5061152;28;20597;-83
2022/08/04 09:21:48;;;;;;;19.55;3.13;;;;;;;33.37;53.32;100869.03;5081157;28;20488;-83
2022/08/04 09:24:23;;;;;;;18.75;2.50;;;;;;;33.39;54.04;100869.59;5060630;28;20040;-82
2022/08/04 09:26:53;;;;;;;11.40;2.63;;;;;;;33.66;53.13;100871.44;5060188;28;20365;-82
2022/08/04 09:29:56;;;;;;;16.50;2.90;;;;;;;32.93;56.11;100872.06;5062740;28;20036;-80
2022/08/04 09:32:31;;;;;;;25.25;3.00;;;;;;;33.14;54.59;100876.78;5046735;28;20071;-84
2022/08/04 09:35:36;;;;;;;12.95;2.92;;;;;;;32.87;57.44;100874.00;5059154;28;20457;-83
2022/08/04 09:38:21;;;;;;;16.58;4.05;;;;;;;32.52;60.25;100878.19;5057477;28;20044;-83
2022/08/04 09:41:09;;;;;;;16.98;3.67;;;;;;;33.04;58.09;100878.66;5041857;28;20032;-83
2022/08/04 09:44:02;;;;;;;18.60;3.83;;;;;;;32.79;58.54;100883.84;5077920;28;20032;-83
2022/08/04 09:46:38;;;;;;;12.52;3.38;;;;;;;31.85;59.91;100883.06;5078415;28;20029;-83
2022/08/04 09:49:18;;;;;;;15.85;3.42;;;;;;;31.97;59.79;100888.56;5078449;28;20028;-82
2022/08/04 09:51:52;;;;;;;16.65;4.15;;;;;;;31.58;60.95;100885.81;5061766;28;20123;-83
2022/08/04 09:54:41;;;;;;;13.50;4.60;;;;;;;32.54;61.36;100894.94;5077653;28;20112;-83
2022/08/04 09:57:17;;;;;;;24.30;7.85;;;;;;;31.71;66.30;100904.38;5059852;28;20056;-82
2022/08/04 09:59:56;;;;;;;18.75;6.63;;;;;;;31.52;67.52;100901.00;5053350;28;20108;-83
2022/08/04 10:02:23;;;;;;;24.58;7.90;;;;;;;31.57;66.88;100903.06;5057664;28;20028;-83
2022/08/04 10:04:52;;;;;;;33.92;7.80;;;;;;;31.24;68.48;100905.66;5041180;28;20036;-82
2022/08/04 10:07:28;;;;;;;22.38;6.63;;;;;;;30.97;70.85;100916.78;5061260;28;20095;-82
2022/08/04 10:10:09;;;;;;;23.17;7.00;;;;;;;30.76;72.04;100926.84;5061258;28;20029;-82
2022/08/04 10:13:06;;;;;;;19.20;5.85;;;;;;;30.01;76.54;100931.56;5061804;28;20080;-82
2022/08/04 10:16:10;;;;;;;18.52;5.88;;;;;;;29.44;77.68;100940.69;5062827;28;20083;-84
2022/08/04 10:18:57;;;;;;;22.92;5.00;;;;;;;28.96;79.85;100946.22;5078126;28;20119;-83
2022/08/04 10:21:32;;;;;;;16.50;4.28;;;;;;;28.58;81.55;100944.66;5062387;28;20040;-82
2022/08/04 10:24:17;;;;;;;12.98;4.40;;;;;;;28.23;83.33;100956.56;5063685;28;20037;-82
2022/08/04 10:26:55;;;;;;;29.52;5.72;;;;;;;28.19;92.81;100968.56;5057165;28;20124;-83
2022/08/04 10:29:37;;;;;;;15.73;4.80;;;;;;;27.62;100.00;100971.56;5059248;28;20052;-82
2022/08/04 10:32:41;;;;;;;12.65;3.80;;;;;;;27.12;100.00;100978.91;5045145;28;20029;-82
2022/08/04 10:35:10;;;;;;;14.35;4.50;;;;;;;27.04;100.00;100973.56;5044894;28;20543;-83
2022/08/04 10:37:47;;;;;;;20.90;5.07;;;;;;;27.03;100.00;100985.88;5055344;28;20047;-82
2022/08/04 10:40:36;;;;;;;16.17;4.60;;;;;;;27.05;100.00;101002.50;5079500;28;20421;-82
2022/08/04 10:43:12;;;;;;;13.07;4.00;;;;;;;27.03;100.00;101008.38;5064429;28;20119;-83
2022/08/04 10:45:48;;;;;;;15.18;3.70;;;;;;;26.77;100.00;100995.34;5064783;28;20108;-82
2022/08/04 10:48:40;;;;;;;21.13;3.80;;;;;;;26.52;100.00;101006.50;5063674;28;20040;-83
2022/08/04 10:51:17;;;;;;;11.85;3.67;;;;;;;26.44;100.00;101003.94;5048547;28;20076;-82
2022/08/04 10:53:45;;;;;;;17.25;3.30;;;;;;;26.22;100.00;101010.72;5091915;28;20063;-83
2022/08/04 10:56:37;;;;;;;10.25;2.88;;;;;;;26.08;100.00;100992.19;5064462;28;20040;-82
2022/08/04 10:59:10;;;;;;;17.42;3.28;;;;;;;26.14;100.00;100968.84;5064149;28;20040;-83
2022/08/04 11:01:41;;;;;;;16.95;2.80;;;;;;;25.95;100.00;100959.38;5081828;28;20013;-82
2022/08/04 11:04:53;;;;;;;13.10;2.92;;;;;;;26.13;100.00;100961.50;5062303;28;20032;-83
2022/08/04 11:07:20;;;;;;;20.08;3.35;;;;;;;26.16;100.00;100954.59;5084469;28;20039;-83
2022/08/04 11:09:46;;;;;;;15.77;3.30;;;;;;;26.49;100.00;100957.22;5051623;28;20510;-83
2022/08/04 11:12:18;;;;;;;11.70;2.70;;;;;;;26.93;100.00;100941.41;5085611;28;20024;-82
2022/08/04 11:15:33;;;;;;;9.95;2.70;;;;;;;27.40;100.00;100942.97;5084553;28;20032;-83
2022/08/04 11:18:07;;;;;;;21.10;2.70;;;;;;;28.18;100.00;100959.22;5067185;28;20045;-82
2022/08/04 11:21:00;;;;;;;15.50;3.28;;;;;;;27.83;99.69;100956.19;5048898;28;20025;-84
2022/08/04 11:23:33;;;;;;;8.07;2.75;;;;;;;27.29;100.00;100950.22;5069615;28;20506;-83
2022/08/04 11:26:24;;;;;;;12.27;2.70;;;;;;;27.50;100.00;100963.88;5063039;28;20024;-84
2022/08/04 11:28:57;;;;;;;14.30;2.83;;;;;;;27.34;97.83;100964.47;5046091;28;20040;-84
2022/08/04 11:31:30;;;;;;;14.93;2.65;;;;;;;26.94;100.00;100968.44;5081566;28;20033;-83
2022/08/04 11:34:09;;;;;;;9.27;3.10;;;;;;;26.70;100.00;100974.88;5079382;28;20384;-83
2022/08/04 11:36:45;;;;;;;13.30;3.80;;;;;;;26.94;100.00;100978.78;5084263;28;20094;-83
2022/08/04 11:39:47;;;;;;;11.80;3.45;;;;;;;26.60;100.00;100976.19;5082760;28;20051;-84
2022/08/04 11:42:26;;;;;;;16.17;3.15;;;;;;;26.55;100.00;100967.56;5066689;28;20035;-83
2022/08/04 11:45:16;;;;;;;7.68;2.35;;;;;;;26.40;100.00;100959.44;5066901;28;20057;-84
2022/08/04 11:47:46;;;;;;;13.07;2.95;;;;;;;26.44;100.00;100950.59;5050024;28;20391;-84
2022/08/04 11:50:20;;;;;;;10.10;2.72;;;;;;;26.47;100.00;100948.19;5083837;28;20399;-84
2022/08/04 11:52:52;;;;;;;11.18;3.13;;;;;;;26.45;100.00;100955.09;5098904;28;20028;-82
2022/08/04 11:55:20;;;;;;;11.85;2.88;;;;;;;26.72;100.00;100958.66;5101105;28;20030;-83
2022/08/04 11:57:46;;;;;;;16.05;3.55;;;;;;;26.92;100.00;100966.94;5080387;28;20036;-84
2022/08/04 12:00:16;;;;;;;13.95;3.80;;;;;;;26.89;100.00;100964.56;5087738;28;20074;-83
2022/08/04 12:03:21;;;;;;;11.38;3.83;;;;;;;27.12;100.00;100964.84;5092157;28;20074;-83
2022/08/04 12:05:53;;;;;;;14.00;3.42;;;;;;;26.95;100.00;100958.06;5054009;28;20047;-82